createdAt,value
2022-10-04T00:00:38.468Z,3.80
2022-10-04T00:03:29.443Z,4.70
2022-10-04T00:05:59.598Z,5.00
2022-10-04T00:08:38.698Z,2.95
2022-10-04T00:11:20.750Z,3.78
2022-10-04T00:13:58.259Z,4.18
2022-10-04T00:16:48.333Z,3.95
2022-10-04T00:19:16.742Z,4.03
2022-10-04T00:21:58.847Z,4.00
2022-10-04T00:24:29.565Z,3.58
2022-10-04T00:27:20.605Z,6.10
2022-10-04T00:30:06.508Z,4.53
2022-10-04T00:32:44.724Z,4.13
2022-10-04T00:35:28.846Z,3.17
2022-10-04T00:38:12.509Z,5.05
2022-10-04T00:41:17.933Z,5.35
2022-10-04T00:43:50.923Z,5.03
2022-10-04T00:46:26.179Z,7.70
2022-10-04T00:49:12.477Z,7.40
2022-10-04T00:51:47.415Z,5.00
2022-10-04T00:54:20.538Z,7.20
2022-10-04T00:56:54.047Z,4.97
2022-10-04T00:59:47.854Z,7.22
2022-10-04T01:02:26.657Z,7.43
2022-10-04T01:05:03.277Z,4.45
2022-10-04T01:07:32.210Z,6.88
2022-10-04T01:10:05.084Z,9.20
2022-10-04T01:12:37.707Z,6.32
2022-10-04T01:15:15.521Z,6.38
2022-10-04T01:18:09.169Z,8.05
2022-10-04T01:20:40.356Z,4.85
2022-10-04T01:23:10.684Z,6.60
2022-10-04T01:25:50.454Z,9.10
2022-10-04T01:28:20.450Z,7.30
2022-10-04T01:30:51.812Z,7.20
2022-10-04T01:33:21.232Z,11.02
2022-10-04T01:35:50.141Z,6.47
2022-10-04T01:38:22.573Z,7.20
2022-10-04T01:40:56.485Z,7.40
2022-10-04T01:43:28.633Z,6.60
2022-10-04T01:46:07.108Z,8.45
2022-10-04T01:48:37.648Z,6.78
2022-10-04T01:51:09.710Z,7.65
2022-10-04T01:53:43.391Z,10.30
2022-10-04T01:56:25.732Z,7.18
2022-10-04T01:59:03.944Z,5.40
2022-10-04T02:01:48.302Z,6.15
2022-10-04T02:04:24.788Z,7.72
2022-10-04T02:06:56.884Z,7.07
2022-10-04T02:09:28.322Z,9.95
2022-10-04T02:11:58.383Z,7.65
2022-10-04T02:14:33.788Z,8.57
2022-10-04T02:17:10.805Z,6.07
2022-10-04T02:19:41.403Z,8.50
2022-10-04T02:22:11.483Z,6.22
2022-10-04T02:24:44.480Z,9.52
2022-10-04T02:27:15.861Z,6.20
2022-10-04T02:29:46.836Z,4.22
2022-10-04T02:32:34.587Z,9.13
2022-10-04T02:35:04.837Z,4.18
2022-10-04T02:37:34.876Z,5.82
2022-10-04T02:40:11.703Z,5.82
2022-10-04T02:42:44.250Z,6.65
2022-10-04T02:45:18.800Z,4.65
2022-10-04T02:50:52.644Z,9.17
2022-10-04T02:53:42.887Z,5.53
2022-10-04T02:56:12.872Z,3.85
2022-10-04T02:58:42.729Z,5.10
2022-10-04T03:01:38.848Z,4.70
2022-10-04T03:04:12.941Z,2.97
2022-10-04T03:06:45.727Z,4.13
2022-10-04T03:09:18.760Z,3.42
2022-10-04T03:11:48.289Z,3.15
2022-10-04T03:14:21.453Z,4.45
2022-10-04T03:16:51.549Z,6.07
2022-10-04T03:19:25.145Z,4.90
2022-10-04T03:21:56.644Z,6.18
2022-10-04T03:24:28.293Z,5.45
2022-10-04T03:26:59.622Z,4.80
2022-10-04T03:29:30.711Z,7.20
2022-10-04T03:32:01.750Z,8.88
2022-10-04T03:34:41.700Z,7.93
2022-10-04T03:37:17.419Z,10.40
2022-10-04T03:39:49.822Z,25.27
2022-10-04T03:42:23.440Z,43.00
2022-10-04T03:44:53.803Z,35.92
2022-10-04T03:47:27.488Z,32.08
2022-10-04T03:49:57.997Z,29.25
2022-10-04T03:52:27.881Z,17.10
2022-10-04T03:55:00.202Z,11.93
2022-10-04T03:57:30.606Z,11.57
2022-10-04T04:00:00.266Z,38.38
2022-10-04T04:02:32.840Z,76.15
2022-10-04T04:05:17.100Z,32.72
2022-10-04T04:07:56.208Z,26.67
2022-10-04T04:10:36.501Z,34.60
2022-10-04T04:13:25.017Z,18.00
2022-10-04T04:15:57.680Z,15.23
2022-10-04T04:18:29.043Z,9.43
2022-10-04T04:21:00.551Z,9.13
2022-10-04T04:23:33.336Z,9.40
2022-10-04T04:26:14.846Z,7.97
2022-10-04T04:28:49.173Z,6.03
2022-10-04T04:31:28.736Z,6.53
2022-10-04T04:34:00.753Z,8.07
2022-10-04T04:36:33.023Z,5.88
2022-10-04T04:39:29.117Z,5.38
2022-10-04T04:41:57.656Z,9.65
2022-10-04T04:44:27.287Z,13.27
2022-10-04T04:47:00.540Z,8.43
2022-10-04T04:49:33.772Z,8.20
2022-10-04T04:52:04.085Z,7.35
2022-10-04T04:54:34.728Z,8.23
2022-10-04T04:57:04.417Z,9.00
2022-10-04T04:59:35.671Z,6.38
2022-10-04T05:02:04.328Z,7.07
2022-10-04T05:04:36.456Z,8.63
2022-10-04T05:07:06.636Z,6.63
2022-10-04T05:09:41.928Z,7.60
2022-10-04T05:12:13.992Z,5.50
2022-10-04T05:14:47.961Z,9.13
2022-10-04T05:17:23.130Z,176.30
2022-10-04T05:19:59.072Z,24.83
2022-10-04T05:22:31.242Z,14.07
2022-10-04T05:25:03.658Z,8.82
2022-10-04T05:27:40.995Z,7.93
2022-10-04T05:30:11.832Z,7.65
2022-10-04T05:32:52.743Z,6.28
2022-10-04T05:35:23.555Z,6.70
2022-10-04T05:37:53.720Z,5.57
2022-10-04T05:40:28.179Z,6.05
2022-10-04T05:42:58.485Z,10.65
2022-10-04T05:45:30.712Z,5.85
2022-10-04T05:48:02.361Z,5.18
2022-10-04T05:50:42.669Z,9.07
2022-10-04T05:53:28.123Z,8.55
2022-10-04T05:56:19.919Z,4.93
2022-10-04T05:59:07.633Z,4.97
2022-10-04T06:01:44.116Z,3.20
2022-10-04T06:04:25.782Z,3.90
2022-10-04T06:07:18.497Z,5.22
2022-10-04T06:10:08.686Z,4.60
2022-10-04T06:12:53.958Z,5.63
2022-10-04T06:15:44.112Z,4.57
2022-10-04T06:18:23.790Z,5.13
2022-10-04T06:20:56.465Z,4.03
2022-10-04T06:23:28.688Z,4.38
2022-10-04T06:26:18.445Z,3.85
2022-10-04T06:28:59.149Z,2.78
2022-10-04T06:32:05.392Z,5.45
2022-10-04T06:34:58.078Z,4.30
2022-10-04T06:38:14.342Z,4.13
2022-10-04T06:40:42.705Z,2.75
2022-10-04T06:43:32.477Z,2.78
2022-10-04T06:46:01.503Z,3.90
2022-10-04T06:49:01.666Z,3.78
2022-10-04T06:51:42.431Z,3.33
2022-10-04T06:54:38.197Z,2.53
2022-10-04T06:57:16.996Z,3.88
2022-10-04T06:59:46.894Z,5.78
2022-10-04T07:02:21.497Z,3.00
2022-10-04T07:05:13.015Z,4.95
2022-10-04T07:07:47.476Z,5.13
2022-10-04T07:10:29.418Z,3.53
2022-10-04T07:13:09.815Z,5.70
2022-10-04T07:15:48.133Z,6.68
2022-10-04T07:18:23.655Z,3.08
2022-10-04T07:21:03.228Z,3.72
2022-10-04T07:23:48.057Z,2.38
2022-10-04T07:26:52.779Z,2.00
2022-10-04T07:29:30.212Z,3.40
2022-10-04T07:32:18.966Z,1.98
2022-10-04T07:35:14.342Z,1.60
2022-10-04T07:37:53.538Z,3.33
2022-10-04T07:40:26.111Z,3.15
2022-10-04T07:43:04.701Z,5.50
2022-10-04T07:45:41.976Z,3.78
2022-10-04T07:48:31.264Z,3.78
2022-10-04T07:51:14.917Z,3.33
2022-10-04T07:53:53.830Z,5.82
2022-10-04T07:56:53.541Z,6.15
2022-10-04T07:59:57.938Z,4.47
2022-10-04T08:02:47.797Z,3.78
2022-10-04T08:05:42.739Z,7.13
2022-10-04T08:08:29.852Z,3.15
2022-10-04T08:11:15.033Z,9.48
2022-10-04T08:13:47.859Z,4.63
2022-10-04T08:16:32.493Z,4.53
2022-10-04T08:19:10.218Z,1.83
2022-10-04T08:22:05.723Z,11.63
2022-10-04T08:24:34.421Z,5.78
2022-10-04T08:27:28.258Z,4.05
2022-10-04T08:30:16.751Z,5.28
2022-10-04T08:33:07.810Z,3.50
2022-10-04T08:35:37.702Z,8.20
2022-10-04T08:38:37.425Z,4.10
2022-10-04T08:41:29.921Z,3.28
2022-10-04T08:44:28.919Z,8.25
2022-10-04T08:47:32.267Z,6.03
2022-10-04T08:50:29.343Z,5.22
2022-10-04T08:53:22.367Z,4.55
2022-10-04T08:56:24.031Z,3.35
2022-10-04T08:59:12.506Z,3.97
2022-10-04T09:02:00.546Z,2.33
2022-10-04T09:04:47.705Z,5.35
2022-10-04T09:07:35.939Z,8.15
2022-10-04T09:10:29.472Z,5.60
2022-10-04T09:13:31.151Z,5.00
2022-10-04T09:16:19.891Z,4.05
2022-10-04T09:19:10.747Z,3.67
2022-10-04T09:22:04.583Z,3.90
2022-10-04T09:25:09.227Z,3.92
2022-10-04T09:28:05.397Z,2.88
2022-10-04T09:30:56.919Z,4.75
2022-10-04T09:33:37.511Z,6.93
2022-10-04T09:36:22.441Z,3.53
2022-10-04T09:39:25.124Z,20.70
2022-10-04T09:42:15.308Z,2.35
2022-10-04T09:44:56.271Z,1.98
2022-10-04T09:47:38.585Z,2.75
2022-10-04T09:50:37.383Z,3.22
2022-10-04T09:53:46.444Z,5.70
2022-10-04T09:57:08.969Z,2.85
2022-10-04T10:00:23.874Z,5.80
2022-10-04T10:03:23.970Z,19.92
2022-10-04T10:06:26.668Z,6.85
2022-10-04T10:09:12.371Z,2.83
2022-10-04T10:12:38.926Z,3.33
2022-10-04T10:15:15.850Z,4.93
2022-10-04T10:18:19.362Z,3.70
2022-10-04T10:21:19.903Z,5.80
2022-10-04T10:24:06.408Z,17.20
2022-10-04T10:29:41.770Z,5.78
2022-10-04T10:32:16.266Z,3.00
2022-10-04T10:37:55.880Z,5.68
2022-10-04T10:40:48.709Z,20.92
2022-10-04T10:44:05.488Z,2.00
2022-10-04T10:47:14.065Z,3.35
2022-10-04T10:50:11.200Z,3.55
2022-10-04T10:53:22.353Z,10.32
2022-10-04T10:56:51.370Z,16.83
2022-10-04T11:00:23.412Z,3.95
2022-10-04T11:03:23.240Z,4.35
2022-10-04T11:06:34.498Z,2.42
2022-10-04T11:13:22.705Z,13.23
2022-10-04T11:20:00.154Z,3.13
2022-10-04T11:27:34.853Z,5.40
2022-10-04T11:30:22.306Z,4.28
2022-10-04T11:34:01.483Z,3.55
2022-10-04T11:37:19.953Z,2.75
2022-10-04T11:40:44.306Z,3.53
2022-10-04T11:44:12.955Z,3.33
2022-10-04T11:47:22.083Z,3.03
2022-10-04T11:50:03.174Z,4.35
2022-10-04T11:53:11.227Z,2.03
2022-10-04T11:56:08.473Z,2.28
2022-10-04T11:59:21.674Z,2.92
2022-10-04T12:02:35.330Z,7.78
2022-10-04T12:05:45.148Z,1.67
2022-10-04T12:08:46.498Z,3.08
2022-10-04T12:11:26.605Z,4.23
2022-10-04T12:17:46.011Z,7.53
2022-10-04T12:20:36.321Z,6.75
2022-10-04T12:23:24.665Z,3.65
2022-10-04T12:29:30.375Z,8.65
2022-10-04T12:36:00.518Z,4.88
2022-10-04T12:38:54.837Z,8.05
2022-10-04T12:41:52.589Z,4.13
2022-10-04T12:44:34.871Z,8.48
2022-10-04T12:47:31.352Z,26.90
2022-10-04T12:50:42.128Z,6.97
2022-10-04T12:53:58.872Z,17.17
2022-10-04T12:56:57.213Z,27.13
2022-10-04T12:59:52.754Z,7.38
2022-10-04T13:02:25.473Z,12.95
2022-10-04T13:04:57.357Z,28.38
2022-10-04T13:07:40.147Z,56.22
2022-10-04T13:10:40.194Z,30.90
2022-10-04T13:13:34.654Z,30.55
2022-10-04T13:19:36.658Z,19.55
2022-10-04T13:22:13.176Z,7.57
2022-10-04T13:24:58.134Z,29.48
2022-10-04T13:27:40.360Z,19.52
2022-10-04T13:30:49.569Z,12.68
2022-10-04T13:33:45.113Z,10.40
2022-10-04T13:36:39.327Z,9.80
2022-10-04T13:39:25.966Z,2.42
2022-10-04T13:42:12.458Z,6.97
2022-10-04T13:48:15.191Z,9.27
2022-10-04T13:51:05.537Z,4.70
2022-10-04T13:54:12.691Z,6.07
2022-10-04T13:56:55.605Z,4.15
2022-10-04T13:59:58.892Z,8.68
2022-10-04T14:02:44.817Z,4.55
2022-10-04T14:05:35.742Z,377.33
2022-10-04T14:08:44.742Z,159.30
2022-10-04T14:11:39.429Z,56.45
2022-10-04T14:14:43.542Z,87.05
2022-10-04T14:17:33.785Z,4.93
2022-10-04T14:24:18.885Z,2.55
2022-10-04T14:27:23.573Z,4.90
2022-10-04T14:30:49.405Z,17.40
2022-10-04T14:33:58.114Z,8.77
2022-10-04T14:37:07.146Z,5.25
2022-10-04T14:39:56.272Z,6.10
2022-10-04T14:42:49.127Z,3.47
2022-10-04T14:45:24.647Z,5.90
2022-10-04T14:48:05.176Z,4.72
2022-10-04T14:50:58.271Z,12.82
2022-10-04T14:53:37.209Z,6.80
2022-10-04T14:56:35.243Z,12.63
2022-10-04T14:59:22.783Z,4.65
2022-10-04T15:02:14.750Z,6.13
2022-10-04T15:05:13.120Z,13.00
2022-10-04T15:07:54.091Z,4.72
2022-10-04T15:10:38.395Z,2.60
2022-10-04T15:13:37.944Z,4.05
2022-10-04T15:16:32.216Z,4.97
2022-10-04T15:19:32.614Z,8.07
2022-10-04T15:22:42.154Z,18.17
2022-10-04T15:25:39.658Z,11.00
2022-10-04T15:28:33.220Z,11.90
2022-10-04T15:31:35.878Z,36.60
2022-10-04T15:34:11.201Z,72.15
2022-10-04T15:37:03.278Z,32.47
2022-10-04T15:42:39.361Z,50.58
2022-10-04T15:45:30.584Z,43.17
2022-10-04T15:48:20.903Z,57.88
2022-10-04T15:51:12.851Z,83.20
2022-10-04T15:54:06.398Z,42.40
2022-10-04T15:56:46.941Z,41.15
2022-10-04T15:59:35.436Z,55.60
2022-10-04T16:02:25.078Z,29.85
2022-10-04T16:04:55.921Z,25.88
2022-10-04T16:07:24.053Z,24.88
2022-10-04T16:10:20.402Z,22.88
2022-10-04T16:13:21.431Z,33.30
2022-10-04T16:16:20.830Z,42.05
2022-10-04T16:19:39.331Z,72.60
2022-10-04T16:22:19.881Z,74.65
2022-10-04T16:25:14.427Z,49.90
2022-10-04T16:27:52.889Z,28.52
2022-10-04T16:31:04.196Z,44.35
2022-10-04T16:33:46.659Z,51.53
2022-10-04T16:36:24.947Z,69.13
2022-10-04T16:39:15.540Z,78.55
2022-10-04T16:42:13.166Z,59.05
2022-10-04T16:45:11.250Z,39.65
2022-10-04T16:48:05.141Z,54.65
2022-10-04T16:50:58.631Z,43.47
2022-10-04T16:54:07.372Z,58.67
2022-10-04T16:56:58.147Z,80.28
2022-10-04T16:59:40.009Z,83.68
2022-10-04T17:02:49.602Z,83.80
2022-10-04T17:05:36.256Z,86.18
2022-10-04T17:08:19.842Z,76.78
2022-10-04T17:11:27.086Z,84.43
2022-10-04T17:16:57.774Z,117.35
2022-10-04T17:19:49.148Z,121.53
2022-10-04T17:22:26.059Z,106.05
2022-10-04T17:25:20.681Z,85.72
2022-10-04T17:28:01.569Z,97.72
2022-10-04T17:30:53.742Z,85.70
2022-10-04T17:33:50.869Z,77.05
2022-10-04T17:36:38.603Z,293.25
2022-10-04T17:39:52.763Z,130.00
2022-10-04T17:42:29.495Z,95.28
2022-10-04T17:45:17.052Z,108.82
2022-10-04T17:48:14.091Z,79.38
2022-10-04T17:51:34.291Z,66.05
2022-10-04T17:54:41.909Z,66.28
2022-10-04T17:57:35.736Z,55.55
2022-10-04T18:00:18.911Z,50.40
2022-10-04T18:03:00.178Z,49.20
2022-10-04T18:06:02.902Z,80.15
2022-10-04T18:08:55.129Z,99.38
2022-10-04T18:11:44.391Z,150.52
2022-10-04T18:14:38.267Z,94.28
2022-10-04T18:17:12.166Z,253.18
2022-10-04T18:20:07.519Z,624.45
2022-10-04T18:23:04.948Z,181.32
2022-10-04T18:25:36.680Z,118.15
2022-10-04T18:28:27.457Z,207.88
2022-10-04T18:31:32.892Z,137.25
2022-10-04T18:37:54.488Z,68.07
2022-10-04T18:40:28.339Z,54.38
2022-10-04T18:43:04.621Z,44.95
2022-10-04T18:45:50.819Z,44.17
2022-10-04T18:49:13.559Z,48.15
2022-10-04T18:52:33.388Z,111.97
2022-10-04T18:55:28.378Z,96.65
2022-10-04T18:59:05.487Z,109.10
2022-10-04T19:02:35.187Z,61.00
2022-10-04T19:05:18.354Z,43.97
2022-10-04T19:08:11.295Z,42.05
2022-10-04T19:11:24.417Z,43.50
2022-10-04T19:14:30.053Z,56.13
2022-10-04T19:17:48.250Z,81.23
2022-10-04T19:26:57.342Z,60.20
2022-10-04T19:29:38.611Z,109.32
2022-10-04T19:32:09.904Z,118.82
2022-10-04T19:34:54.041Z,86.82
2022-10-04T19:37:47.903Z,70.05
2022-10-04T19:40:22.509Z,124.15
2022-10-04T19:43:07.084Z,133.60
2022-10-04T19:45:47.543Z,130.20
2022-10-04T19:48:24.192Z,127.20
2022-10-04T19:51:09.084Z,129.85
2022-10-04T19:53:46.508Z,120.22
2022-10-04T19:56:32.975Z,105.72
2022-10-04T19:59:14.483Z,100.93
2022-10-04T20:01:45.476Z,109.13
2022-10-04T20:04:35.313Z,86.50
2022-10-04T20:07:08.342Z,66.43
2022-10-04T20:09:39.458Z,53.13
2022-10-04T20:12:29.262Z,49.28
2022-10-04T20:15:15.481Z,47.33
2022-10-04T20:17:51.590Z,51.63
2022-10-04T20:20:46.283Z,54.75
2022-10-04T20:23:56.165Z,46.72
2022-10-04T20:27:10.510Z,32.17
2022-10-04T20:29:42.768Z,28.52
2022-10-04T20:32:34.616Z,41.60
2022-10-04T20:35:10.019Z,23.23
2022-10-04T20:37:47.775Z,21.85
2022-10-04T20:40:28.629Z,66.90
2022-10-04T20:43:16.312Z,73.90
2022-10-04T20:45:55.330Z,89.30
2022-10-04T20:48:31.962Z,122.20
2022-10-04T20:51:11.649Z,209.35
2022-10-04T20:53:46.780Z,137.88
2022-10-04T20:56:24.835Z,96.97
2022-10-04T20:58:57.252Z,41.13
2022-10-04T21:01:40.042Z,39.42
2022-10-04T21:04:33.247Z,57.55
2022-10-04T21:07:03.213Z,33.20
2022-10-04T21:09:34.216Z,24.17
2022-10-04T21:12:06.920Z,57.40
2022-10-04T21:14:37.240Z,75.43
2022-10-04T21:20:35.295Z,91.60
2022-10-04T21:23:09.352Z,54.45
2022-10-04T21:25:39.231Z,36.08
2022-10-04T21:28:25.624Z,33.70
2022-10-04T21:30:54.152Z,28.27
2022-10-04T21:33:22.759Z,36.08
2022-10-04T21:38:54.728Z,37.08
2022-10-04T21:41:23.237Z,26.45
2022-10-04T21:43:53.944Z,22.45
2022-10-04T21:46:23.883Z,18.83
2022-10-04T21:48:54.678Z,20.88
2022-10-04T21:51:23.045Z,21.05
2022-10-04T21:53:51.592Z,21.45
2022-10-04T21:56:21.796Z,22.23
2022-10-04T21:59:06.839Z,18.75
2022-10-04T22:01:36.685Z,29.02
2022-10-04T22:19:13.295Z,59.58
2022-10-04T22:21:43.532Z,52.25
2022-10-04T22:24:19.982Z,44.83
2022-10-04T22:26:49.958Z,61.42
2022-10-04T22:29:21.315Z,70.43
2022-10-04T22:31:53.259Z,34.08
2022-10-04T22:34:23.236Z,99.65
2022-10-04T22:36:53.417Z,101.78
2022-10-04T22:39:23.622Z,39.88
2022-10-04T22:42:06.204Z,208.13
2022-10-04T22:44:38.008Z,19.73
2022-10-04T22:47:08.627Z,14.88
2022-10-04T22:49:38.251Z,35.28
2022-10-04T22:52:14.527Z,63.95
2022-10-04T22:54:46.529Z,61.97
2022-10-04T22:57:15.603Z,27.70
2022-10-04T22:59:50.064Z,62.65
2022-10-04T23:02:29.421Z,30.13
2022-10-04T23:05:15.541Z,17.17
2022-10-04T23:07:46.354Z,22.40
2022-10-04T23:10:18.658Z,15.48
2022-10-04T23:12:48.204Z,13.57
2022-10-04T23:15:19.740Z,21.02
2022-10-04T23:17:56.652Z,18.13
2022-10-04T23:20:30.021Z,21.60
2022-10-04T23:23:00.435Z,44.45
2022-10-04T23:25:32.520Z,51.63
2022-10-04T23:28:15.143Z,82.95
2022-10-04T23:30:45.991Z,28.33
2022-10-04T23:33:21.198Z,46.00
2022-10-04T23:35:52.023Z,91.68
2022-10-04T23:38:23.081Z,75.57
2022-10-04T23:40:53.611Z,72.10
2022-10-04T23:43:27.300Z,43.65
2022-10-04T23:45:57.376Z,21.13
2022-10-04T23:48:27.616Z,19.88
2022-10-04T23:51:10.432Z,22.30
2022-10-04T23:53:39.756Z,16.13
2022-10-04T23:56:13.353Z,15.32
2022-10-04T23:58:42.587Z,16.67
